Injune Post Office, Australia
Current Conditions -  °F | °C
As of 6:00 PM on Friday 28 Nov 2014 (Local Time) from YBCV Reporting Station
Broken Clouds Broken Clouds  
Wind Chill: 77°   Ceiling: 11000
Heat Index: 79°   Visibility: 6mi
Dew Point: 59°   Wind: 17mph
Humidity: 54%   Direction: 30°NNE
Pressure: 29.88"   Gusts: NA
Location:  25.85°S, 148.57°E
Report Text: YBCV 280800Z AUTO 03015KT 9999 // BKN110 25/15 Q1012
Loading
Personal Weather Stations






























Interactive Weather Map New forecast layout! Learn more

10-Day Weather Forecast

Advertisements
Track Severe Weather on mobile